createdAt,value
2017-07-01T00:00:46.701Z,44.00
2017-07-01T00:03:19.007Z,44.47
2017-07-01T00:05:51.387Z,48.00
2017-07-01T00:08:23.985Z,45.40
2017-07-01T00:10:56.357Z,46.30
2017-07-01T00:13:28.635Z,48.77
2017-07-01T00:16:01.088Z,49.13
2017-07-01T00:18:33.451Z,47.67
2017-07-01T00:21:05.741Z,45.57
2017-07-01T00:23:38.111Z,47.07
2017-07-01T00:26:11.112Z,47.10
2017-07-01T00:28:43.715Z,47.63
2017-07-01T00:31:16.188Z,47.90
2017-07-01T00:33:48.301Z,47.93
2017-07-01T00:36:20.681Z,44.37
2017-07-01T00:38:53.069Z,45.63
2017-07-01T00:41:25.489Z,42.27
2017-07-01T00:43:58.058Z,45.20
2017-07-01T00:46:30.316Z,42.73
2017-07-01T00:49:02.977Z,42.93
2017-07-01T00:51:35.053Z,41.07
2017-07-01T00:54:07.499Z,41.43
2017-07-01T00:56:39.834Z,40.20
2017-07-01T00:59:12.571Z,39.50
2017-07-01T01:01:44.748Z,41.20
2017-07-01T01:04:18.193Z,41.90
2017-07-01T01:06:50.552Z,39.33
2017-07-01T01:09:23.080Z,43.37
2017-07-01T01:11:55.299Z,36.33
2017-07-01T01:14:27.837Z,42.03
2017-07-01T01:17:00.112Z,41.60
2017-07-01T01:19:32.488Z,40.50
2017-07-01T01:22:04.797Z,42.13
2017-07-01T01:24:37.195Z,36.27
2017-07-01T01:27:09.596Z,42.03
2017-07-01T01:29:42.107Z,39.97
2017-07-01T01:32:14.418Z,42.70
2017-07-01T01:34:46.819Z,45.17
2017-07-01T01:37:19.320Z,40.90
2017-07-01T01:39:51.608Z,44.33
2017-07-01T01:42:24.067Z,43.57
2017-07-01T01:44:56.458Z,42.97
2017-07-01T01:47:28.786Z,44.37
2017-07-01T01:50:01.371Z,42.17
2017-07-01T01:52:33.648Z,40.60
2017-07-01T01:55:06.072Z,37.97
2017-07-01T01:57:38.503Z,41.03
2017-07-01T02:00:10.648Z,41.47
2017-07-01T02:02:43.046Z,39.73
2017-07-01T02:05:15.608Z,43.20
2017-07-01T02:07:48.087Z,41.77
2017-07-01T02:10:20.308Z,43.20
2017-07-01T02:12:53.023Z,41.57
2017-07-01T02:15:25.417Z,40.67
2017-07-01T02:17:59.777Z,43.57
2017-07-01T02:20:43.228Z,40.53
2017-07-01T02:23:15.690Z,38.50
2017-07-01T02:26:00.403Z,40.60
2017-07-01T02:28:32.672Z,42.30
2017-07-01T02:31:04.919Z,35.20
2017-07-01T02:33:44.320Z,37.70
2017-07-01T02:36:19.508Z,37.90
2017-07-01T02:38:52.252Z,38.10
2017-07-01T02:41:24.104Z,39.30
2017-07-01T02:43:56.481Z,37.10
2017-07-01T02:46:39.639Z,36.60
2017-07-01T02:49:14.061Z,33.87
2017-07-01T02:52:06.865Z,34.97
2017-07-01T02:55:00.510Z,35.53
2017-07-01T02:57:32.979Z,35.47
2017-07-01T03:00:06.344Z,37.63
2017-07-01T03:02:38.903Z,37.40
2017-07-01T03:05:12.257Z,36.03
2017-07-01T03:07:44.834Z,34.40
2017-07-01T03:10:17.436Z,36.30
2017-07-01T03:12:49.573Z,33.87
2017-07-01T03:15:21.959Z,33.80
2017-07-01T03:18:15.236Z,36.50
2017-07-01T03:20:48.133Z,35.80
2017-07-01T03:23:20.465Z,34.57
2017-07-01T03:25:55.734Z,32.33
2017-07-01T03:28:28.357Z,32.77
2017-07-01T03:31:00.645Z,34.67
2017-07-01T03:33:38.988Z,35.33
2017-07-01T03:36:11.391Z,31.83
2017-07-01T03:38:56.273Z,30.87
2017-07-01T03:41:44.189Z,30.20
2017-07-01T03:44:22.895Z,29.17
2017-07-01T03:46:55.787Z,33.07
2017-07-01T03:49:33.296Z,32.83
2017-07-01T03:52:05.781Z,34.37
2017-07-01T03:54:48.071Z,33.87
2017-07-01T03:57:20.636Z,32.97
2017-07-01T03:59:53.124Z,29.67
2017-07-01T04:02:24.980Z,24.17
2017-07-01T04:04:57.512Z,29.07
2017-07-01T04:07:29.572Z,30.00
2017-07-01T04:10:01.964Z,28.07
2017-07-01T04:12:34.505Z,25.57
2017-07-01T04:15:06.824Z,24.03
2017-07-01T04:17:39.424Z,25.87
2017-07-01T04:20:11.623Z,25.10
2017-07-01T04:22:45.741Z,27.20
2017-07-01T04:25:17.740Z,29.23
2017-07-01T04:27:50.076Z,32.87
2017-07-01T04:30:22.344Z,31.63
2017-07-01T04:32:54.800Z,32.67
2017-07-01T04:35:27.047Z,33.40
2017-07-01T04:37:59.450Z,32.67
2017-07-01T04:40:32.916Z,33.00
2017-07-01T04:43:07.905Z,32.07
2017-07-01T04:45:40.577Z,35.67
2017-07-01T04:48:13.899Z,34.40
2017-07-01T04:50:59.027Z,33.63
2017-07-01T04:53:31.911Z,34.27
2017-07-01T04:56:04.670Z,32.17
2017-07-01T04:58:37.024Z,33.53
2017-07-01T05:01:10.335Z,35.03
2017-07-01T05:03:51.873Z,32.37
2017-07-01T05:06:26.167Z,33.97
2017-07-01T05:08:58.020Z,32.77
2017-07-01T05:11:30.759Z,33.30
2017-07-01T05:14:03.159Z,27.80
2017-07-01T05:16:37.385Z,26.40
2017-07-01T05:19:10.467Z,26.27
2017-07-01T05:21:42.531Z,27.97
2017-07-01T05:24:16.241Z,26.97
2017-07-01T05:26:48.901Z,27.77
2017-07-01T05:29:21.628Z,25.87
2017-07-01T05:31:54.084Z,28.03
2017-07-01T05:34:26.550Z,28.10
2017-07-01T05:36:59.868Z,29.23
2017-07-01T05:39:32.444Z,28.10
2017-07-01T05:42:27.753Z,28.87
2017-07-01T05:45:00.577Z,26.80
2017-07-01T05:47:32.377Z,28.37
2017-07-01T05:50:04.721Z,25.70
2017-07-01T05:52:37.086Z,27.80
2017-07-01T05:55:09.503Z,23.60
2017-07-01T05:57:44.330Z,24.70
2017-07-01T06:00:19.277Z,24.07
2017-07-01T06:02:52.473Z,22.73
2017-07-01T06:05:25.857Z,23.97
2017-07-01T06:07:58.223Z,24.73
2017-07-01T06:10:35.551Z,24.47
2017-07-01T06:13:08.820Z,23.87
2017-07-01T06:15:50.250Z,24.10
2017-07-01T06:18:28.968Z,21.67
2017-07-01T06:21:07.117Z,21.80
2017-07-01T06:24:02.547Z,21.87
2017-07-01T06:26:57.191Z,21.50
2017-07-01T06:29:41.391Z,21.20
2017-07-01T06:32:28.881Z,20.43
2017-07-01T06:35:10.556Z,18.90
2017-07-01T06:37:54.796Z,18.90
2017-07-01T06:40:49.512Z,18.67
2017-07-01T06:43:22.295Z,18.53
2017-07-01T06:45:54.753Z,16.70
2017-07-01T06:48:27.641Z,17.33
2017-07-01T06:51:00.011Z,15.57
2017-07-01T06:53:32.761Z,15.67
2017-07-01T06:56:04.966Z,14.20
2017-07-01T06:58:37.057Z,14.50
2017-07-01T07:01:09.688Z,14.90
2017-07-01T07:03:42.537Z,14.03
2017-07-01T07:06:14.875Z,13.13
2017-07-01T07:08:47.648Z,13.57
2017-07-01T07:11:20.007Z,12.37
2017-07-01T07:13:52.481Z,11.37
2017-07-01T07:16:24.782Z,10.57
2017-07-01T07:18:56.939Z,9.20
2017-07-01T07:21:28.919Z,9.40
2017-07-01T07:24:00.855Z,9.03
2017-07-01T07:26:33.516Z,7.60
2017-07-01T07:29:09.364Z,7.80
2017-07-01T07:31:41.800Z,6.87
2017-07-01T07:34:13.777Z,7.30
2017-07-01T07:36:46.272Z,8.60
2017-07-01T07:39:18.585Z,7.70
2017-07-01T07:41:51.203Z,7.03
2017-07-01T07:44:24.652Z,7.73
2017-07-01T07:46:57.132Z,6.70
2017-07-01T07:49:29.549Z,6.40
2017-07-01T07:52:01.894Z,5.33
2017-07-01T07:54:34.494Z,4.87
2017-07-01T07:57:06.593Z,3.50
2017-07-01T07:59:38.893Z,2.27
2017-07-01T08:02:11.325Z,2.17
2017-07-01T08:04:43.713Z,2.63
2017-07-01T08:07:17.098Z,2.50
2017-07-01T08:09:49.600Z,2.63
2017-07-01T08:12:21.854Z,2.60
2017-07-01T08:14:54.636Z,3.43
2017-07-01T08:17:26.699Z,3.03
2017-07-01T08:19:59.283Z,3.27
2017-07-01T08:22:31.545Z,3.00
2017-07-01T08:25:04.088Z,3.23
2017-07-01T08:27:36.429Z,2.93
2017-07-01T08:30:08.996Z,3.13
2017-07-01T08:32:41.630Z,2.47
2017-07-01T08:35:13.836Z,3.00
2017-07-01T08:37:46.300Z,2.40
2017-07-01T08:40:18.709Z,2.60
2017-07-01T08:42:51.370Z,2.67
2017-07-01T08:45:23.528Z,2.20
2017-07-01T08:47:55.883Z,2.80
2017-07-01T08:50:28.196Z,2.80
2017-07-01T08:53:00.543Z,2.70
2017-07-01T08:55:34.156Z,2.57
2017-07-01T08:58:06.348Z,2.63
2017-07-01T09:00:39.552Z,3.07
2017-07-01T09:03:12.408Z,3.30
2017-07-01T09:05:44.488Z,3.70
2017-07-01T09:08:16.749Z,4.00
2017-07-01T09:10:50.745Z,3.80
2017-07-01T09:13:22.565Z,4.00
2017-07-01T09:15:54.995Z,3.80
2017-07-01T09:18:27.401Z,3.43
2017-07-01T09:20:59.859Z,3.33
2017-07-01T09:23:32.205Z,2.83
2017-07-01T09:26:05.116Z,3.03
2017-07-01T09:28:36.980Z,2.53
2017-07-01T09:31:09.471Z,3.27
2017-07-01T09:33:41.909Z,3.50
2017-07-01T09:36:14.373Z,3.73
2017-07-01T09:38:46.855Z,4.20
2017-07-01T09:41:19.364Z,5.20
2017-07-01T09:43:52.220Z,6.10
2017-07-01T09:46:24.903Z,6.10
2017-07-01T09:48:57.280Z,5.20
2017-07-01T09:51:29.574Z,6.70
2017-07-01T09:54:02.031Z,7.73
2017-07-01T09:56:34.508Z,8.57
2017-07-01T10:12:13.525Z,11.43
2017-07-01T10:14:45.856Z,11.80
2017-07-01T10:17:19.260Z,12.20
2017-07-01T10:19:52.226Z,13.20
2017-07-01T10:22:24.347Z,12.83
2017-07-01T10:24:56.762Z,10.60
2017-07-01T10:27:29.209Z,8.47
2017-07-01T10:30:01.548Z,8.70
2017-07-01T10:32:34.036Z,8.40
2017-07-01T10:35:06.423Z,8.20
2017-07-01T10:37:38.846Z,7.37
2017-07-01T10:40:11.147Z,8.07
2017-07-01T10:42:43.528Z,8.07
2017-07-01T10:45:15.825Z,7.30
2017-07-01T10:47:48.220Z,8.23
2017-07-01T10:50:20.523Z,8.80
2017-07-01T10:52:53.008Z,8.57
2017-07-01T10:55:25.371Z,7.93
2017-07-01T10:57:57.680Z,9.13
2017-07-01T11:00:30.053Z,8.13
2017-07-01T11:03:02.355Z,7.80
2017-07-01T11:05:34.676Z,8.20
2017-07-01T11:08:07.087Z,7.40
2017-07-01T11:10:39.448Z,8.17
2017-07-01T11:13:11.805Z,7.90
2017-07-01T11:15:44.260Z,8.87
2017-07-01T11:18:16.669Z,8.90
2017-07-01T11:20:48.991Z,8.77
2017-07-01T11:23:21.339Z,8.57
2017-07-01T11:25:53.822Z,9.10
2017-07-01T11:28:26.164Z,7.90
2017-07-01T11:30:58.429Z,9.30
2017-07-01T11:33:30.720Z,9.03
2017-07-01T11:36:03.236Z,9.20
2017-07-01T11:38:35.629Z,10.43
2017-07-01T11:41:07.816Z,10.77
2017-07-01T11:43:40.168Z,9.60
2017-07-01T11:46:12.865Z,8.40
2017-07-01T11:48:44.980Z,9.30
2017-07-01T11:51:17.411Z,7.90
2017-07-01T11:53:49.911Z,8.10
2017-07-01T11:56:22.228Z,6.90
2017-07-01T11:58:55.259Z,7.10
2017-07-01T12:01:28.613Z,7.70
2017-07-01T12:04:00.355Z,7.50
2017-07-01T12:06:33.004Z,6.83
2017-07-01T12:09:05.202Z,6.33
2017-07-01T12:11:37.551Z,6.70
2017-07-01T12:14:09.921Z,6.80
2017-07-01T12:16:42.266Z,6.90
2017-07-01T12:19:14.817Z,7.57
2017-07-01T12:21:47.103Z,6.27
2017-07-01T12:24:20.423Z,6.60
2017-07-01T12:26:52.788Z,7.17
2017-07-01T12:29:25.808Z,6.60
2017-07-01T12:31:57.721Z,7.17
2017-07-01T12:34:30.161Z,7.40
2017-07-01T12:37:02.432Z,7.13
2017-07-01T12:39:34.787Z,7.33
2017-07-01T12:42:07.219Z,6.60
2017-07-01T12:44:39.569Z,7.00
2017-07-01T12:47:11.889Z,7.40
2017-07-01T12:49:44.332Z,7.83
2017-07-01T12:52:16.823Z,7.80
2017-07-01T12:54:49.133Z,7.37
2017-07-01T12:57:21.539Z,7.00
2017-07-01T12:59:54.771Z,5.73
2017-07-01T13:02:27.260Z,5.33
2017-07-01T13:04:59.924Z,5.23
2017-07-01T13:07:32.128Z,4.23
2017-07-01T13:10:04.744Z,3.47
2017-07-01T13:12:37.124Z,3.80
2017-07-01T13:15:09.541Z,4.40
2017-07-01T13:17:42.100Z,4.60
2017-07-01T13:20:14.201Z,5.47
2017-07-01T13:22:46.611Z,5.73
2017-07-01T13:25:19.148Z,2.93
2017-07-01T13:27:51.647Z,2.77
2017-07-01T13:30:24.955Z,2.50
2017-07-01T13:32:57.400Z,2.43
2017-07-01T13:35:29.919Z,2.40
2017-07-01T13:38:02.520Z,2.00
2017-07-01T13:40:34.948Z,2.20
2017-07-01T13:43:07.324Z,2.50
2017-07-01T13:45:39.572Z,2.40
2017-07-01T13:48:12.000Z,3.60
2017-07-01T13:50:44.712Z,4.97
2017-07-01T13:53:16.745Z,2.73
2017-07-01T13:55:50.064Z,3.13
2017-07-01T13:58:22.797Z,3.13
2017-07-01T14:00:55.448Z,2.57
2017-07-01T14:03:29.786Z,3.57
2017-07-01T14:09:07.076Z,3.60
2017-07-01T14:11:53.299Z,3.43
2017-07-01T14:14:25.472Z,4.13
2017-07-01T14:16:57.733Z,4.10
2017-07-01T14:19:30.223Z,4.13
2017-07-01T14:22:03.613Z,3.57
2017-07-01T14:24:36.085Z,3.50
2017-07-01T14:27:08.489Z,4.03
2017-07-01T14:29:40.916Z,5.00
2017-07-01T14:32:13.286Z,4.83
2017-07-01T14:34:45.682Z,5.00
2017-07-01T14:37:18.113Z,5.93
2017-07-01T14:39:50.485Z,6.37
2017-07-01T14:42:23.013Z,7.00
2017-07-01T14:44:55.417Z,6.40
2017-07-01T14:47:27.664Z,7.03
2017-07-01T14:50:00.022Z,5.90
2017-07-01T14:52:32.421Z,6.83
2017-07-01T14:55:04.844Z,6.80
2017-07-01T14:57:37.652Z,7.37
2017-07-01T15:00:09.617Z,6.77
2017-07-01T15:02:49.236Z,6.93
2017-07-01T15:05:21.411Z,6.23
2017-07-01T15:07:53.832Z,7.30
2017-07-01T15:10:26.317Z,6.53
2017-07-01T15:12:58.582Z,6.40
2017-07-01T15:15:30.904Z,6.37
2017-07-01T15:18:03.585Z,6.70
2017-07-01T15:20:35.521Z,7.70
2017-07-01T15:23:07.952Z,6.30
2017-07-01T15:25:40.392Z,6.60
2017-07-01T15:28:12.809Z,7.17
2017-07-01T15:30:45.076Z,6.70
2017-07-01T15:33:17.452Z,7.43
2017-07-01T15:35:49.813Z,6.83
2017-07-01T15:38:22.282Z,6.80
2017-07-01T15:40:54.767Z,7.00
2017-07-01T15:43:27.156Z,7.10
2017-07-01T15:45:59.573Z,7.10
2017-07-01T15:48:32.928Z,6.83
2017-07-01T15:51:05.281Z,6.87
2017-07-01T15:53:37.885Z,7.93
2017-07-01T15:56:10.124Z,7.37
2017-07-01T15:58:42.536Z,7.30
2017-07-01T16:01:27.324Z,7.50
2017-07-01T16:03:59.443Z,8.07
2017-07-01T16:06:31.782Z,7.60
2017-07-01T16:09:04.194Z,8.60
2017-07-01T16:11:36.532Z,7.87
2017-07-01T16:14:08.943Z,8.00
2017-07-01T16:16:41.616Z,7.83
2017-07-01T16:19:13.796Z,7.40
2017-07-01T16:21:46.247Z,6.40
2017-07-01T16:24:18.659Z,6.90
2017-07-01T16:26:51.009Z,7.00
2017-07-01T16:29:23.344Z,6.60
2017-07-01T16:31:55.842Z,7.63
2017-07-01T16:34:28.249Z,7.00
2017-07-01T16:37:00.704Z,6.60
2017-07-01T16:39:33.305Z,7.43
2017-07-01T16:42:05.788Z,7.30
2017-07-01T16:44:38.981Z,6.50
2017-07-01T16:47:11.505Z,6.30
2017-07-01T16:49:44.900Z,6.70
2017-07-01T16:52:17.300Z,7.00
2017-07-01T16:54:49.712Z,6.40
2017-07-01T16:57:22.047Z,6.53
2017-07-01T16:59:55.368Z,6.80
2017-07-01T17:02:27.807Z,8.17
2017-07-01T17:05:00.232Z,7.40
2017-07-01T17:07:32.671Z,7.30
2017-07-01T17:10:05.070Z,6.90
2017-07-01T17:12:37.445Z,6.77
2017-07-01T17:15:09.937Z,7.23
2017-07-01T17:17:42.496Z,7.77
2017-07-01T17:20:14.696Z,6.50
2017-07-01T17:22:47.067Z,7.77
2017-07-01T17:25:19.515Z,7.27
2017-07-01T17:27:52.728Z,6.00
2017-07-01T17:30:25.305Z,6.00
2017-07-01T17:32:57.524Z,5.70
2017-07-01T17:35:29.980Z,5.17
2017-07-01T17:38:02.325Z,5.60
2017-07-01T17:40:34.666Z,4.10
2017-07-01T17:43:07.008Z,4.77
2017-07-01T17:45:39.425Z,4.20
2017-07-01T17:48:11.671Z,4.90
2017-07-01T17:50:44.050Z,4.20
2017-07-01T17:53:16.241Z,4.40
2017-07-01T17:55:48.699Z,4.47
2017-07-01T17:58:21.062Z,4.60
2017-07-01T18:00:54.565Z,4.50
2017-07-01T18:03:26.952Z,4.07
2017-07-01T18:05:59.443Z,4.43
2017-07-01T18:08:31.881Z,4.07
2017-07-01T18:11:04.417Z,4.07
2017-07-01T18:13:36.636Z,4.00
2017-07-01T18:16:09.927Z,3.90
2017-07-01T18:18:42.321Z,4.60
2017-07-01T18:21:14.631Z,4.30
2017-07-01T18:23:46.986Z,4.40
2017-07-01T18:26:19.362Z,4.43
2017-07-01T18:28:51.605Z,4.63
2017-07-01T18:31:23.969Z,4.30
2017-07-01T18:33:56.446Z,4.33
2017-07-01T18:36:28.844Z,4.67
2017-07-01T18:39:01.162Z,4.60
2017-07-01T18:41:33.487Z,5.30
2017-07-01T18:44:06.021Z,4.40
2017-07-01T18:46:38.894Z,3.97
2017-07-01T18:49:12.004Z,4.50
2017-07-01T18:51:44.205Z,4.40
2017-07-01T18:54:16.444Z,4.77
2017-07-01T18:56:49.831Z,4.60
2017-07-01T18:59:22.901Z,4.20
2017-07-01T19:01:55.622Z,4.23
2017-07-01T19:04:28.196Z,4.33
2017-07-01T19:07:00.691Z,5.33
2017-07-01T19:09:32.980Z,5.13
2017-07-01T19:12:05.421Z,4.47
2017-07-01T19:14:37.776Z,4.00
2017-07-01T19:17:11.156Z,4.27
2017-07-01T19:19:43.768Z,4.50
2017-07-01T19:22:16.237Z,5.10
2017-07-01T19:24:48.708Z,4.70
2017-07-01T19:27:21.116Z,5.10
2017-07-01T19:29:53.453Z,5.33
2017-07-01T19:32:26.752Z,5.47
2017-07-01T19:34:59.384Z,4.73
2017-07-01T19:37:32.089Z,5.67
2017-07-01T19:40:04.081Z,5.37
2017-07-01T19:42:36.500Z,5.40
2017-07-01T19:45:08.813Z,5.80
2017-07-01T19:47:41.224Z,5.60
2017-07-01T19:50:13.625Z,5.87
2017-07-01T19:52:45.999Z,5.40
2017-07-01T19:55:18.421Z,5.77
2017-07-01T19:57:50.837Z,5.70
2017-07-01T20:00:23.400Z,6.10
2017-07-01T20:02:55.757Z,6.33
2017-07-01T20:05:28.260Z,7.20
2017-07-01T20:08:00.580Z,6.37
2017-07-01T20:10:32.810Z,6.50
2017-07-01T20:13:05.071Z,6.70
2017-07-01T20:15:37.345Z,9.33
2017-07-01T20:18:16.079Z,7.30
2017-07-01T20:20:48.216Z,7.80
2017-07-01T20:23:20.720Z,7.43
2017-07-01T20:25:53.040Z,7.77
2017-07-01T20:28:25.398Z,8.03
2017-07-01T20:30:57.715Z,8.70
2017-07-01T20:33:30.087Z,8.57
2017-07-01T20:36:02.359Z,8.77
2017-07-01T20:38:34.981Z,8.73
2017-07-01T20:41:07.351Z,10.13
2017-07-01T20:43:39.756Z,9.57
2017-07-01T20:46:11.971Z,10.00
2017-07-01T20:48:44.352Z,10.27
2017-07-01T20:51:16.679Z,10.50
2017-07-01T20:53:49.865Z,11.30
2017-07-01T20:56:23.104Z,10.77
2017-07-01T20:58:55.609Z,10.90
2017-07-01T21:01:27.976Z,11.60
2017-07-01T21:04:00.373Z,12.13
2017-07-01T21:06:32.666Z,12.30
2017-07-01T21:09:05.074Z,12.50
2017-07-01T21:11:37.416Z,12.20
2017-07-01T21:14:10.713Z,13.00
2017-07-01T21:16:43.286Z,14.10
2017-07-01T21:19:15.712Z,14.60
2017-07-01T21:21:48.125Z,14.17
2017-07-01T21:24:20.528Z,13.20
2017-07-01T21:26:53.090Z,17.10
2017-07-01T21:29:25.180Z,17.37
2017-07-01T21:31:57.515Z,15.77
2017-07-01T21:34:29.952Z,16.83
2017-07-01T21:37:02.389Z,15.70
2017-07-01T21:39:34.959Z,17.70
2017-07-01T21:42:06.999Z,16.77
2017-07-01T21:44:39.424Z,15.47
2017-07-01T21:47:11.933Z,16.23
2017-07-01T21:49:44.282Z,16.73
2017-07-01T21:52:17.517Z,16.83
2017-07-01T21:54:49.884Z,18.70
2017-07-01T21:57:22.291Z,15.73
2017-07-01T21:59:54.663Z,15.97
2017-07-01T22:02:27.094Z,15.20
2017-07-01T22:05:00.507Z,13.43
2017-07-01T22:07:33.108Z,16.40
2017-07-01T22:10:05.200Z,14.27
2017-07-01T22:12:37.784Z,14.17
2017-07-01T22:15:10.912Z,13.77
2017-07-01T22:17:44.200Z,13.47
2017-07-01T22:20:16.712Z,12.73
2017-07-01T22:22:48.975Z,13.10
2017-07-01T22:25:21.376Z,12.60
2017-07-01T22:27:53.788Z,11.73
2017-07-01T22:30:26.003Z,12.10
2017-07-01T22:32:58.489Z,13.57
2017-07-01T22:35:30.891Z,12.90
2017-07-01T22:38:03.245Z,13.53
2017-07-01T22:40:35.627Z,12.50
2017-07-01T22:43:07.995Z,12.70
2017-07-01T22:45:40.493Z,12.30
2017-07-01T22:48:12.939Z,12.10
2017-07-01T22:50:45.712Z,14.20
2017-07-01T22:53:17.672Z,12.17
2017-07-01T22:55:50.057Z,12.53
2017-07-01T22:58:22.432Z,13.57
2017-07-01T23:00:54.789Z,12.20
2017-07-01T23:03:27.176Z,12.30
2017-07-01T23:05:59.563Z,12.13
2017-07-01T23:08:31.928Z,12.07
2017-07-01T23:11:04.369Z,11.10
2017-07-01T23:13:36.757Z,12.53
2017-07-01T23:16:09.255Z,11.07
2017-07-01T23:18:42.529Z,12.27
2017-07-01T23:21:14.936Z,11.80
2017-07-01T23:23:47.313Z,12.20
2017-07-01T23:26:20.637Z,12.07
2017-07-01T23:28:53.223Z,13.07
2017-07-01T23:31:25.716Z,13.10
2017-07-01T23:33:58.113Z,11.73
2017-07-01T23:36:30.495Z,12.27
2017-07-01T23:39:02.873Z,12.00
2017-07-01T23:41:35.205Z,12.60
2017-07-01T23:44:07.512Z,11.90
2017-07-01T23:46:39.740Z,13.30
2017-07-01T23:49:12.173Z,11.83
2017-07-01T23:51:44.419Z,12.03
2017-07-01T23:54:17.091Z,11.70
2017-07-01T23:56:49.181Z,12.03
2017-07-01T23:59:21.567Z,11.73
